Hartford, Connecticut
Traffic Map
Current Weather Conditions
Hartford, Connecticut
Overcast
Overcast
27°
Feels Like: 17°
Wind Chill: 17° Ceiling: 10000
Heat Index: 27° Visibility: 10mi
Dew Point: 10° Wind: 10mph
Humidity: 49% Direction: 340° (NNW)
Pressure: 30.11in Gusts: 0mph
Raw Report DataKHFD 290653Z AUTO 34009KT 10SM OVC100 M03/M12 A3011 RMK AO2 SLP195 T10281122
Traffic Incident Summary
Active as of:
Severity:
Category:
InformationThere was an issue retrieving the traffic information for this location. Please try a different location or try again shortly.
Advertisements
Track Severe Weather on mobile